sensor_id;sensor_type;location;lat;lon;timestamp;pressure;altitude;pressure_sealevel;temperature;humidity
20037;BME280;10179;42.640;23.312;2022-08-19T00:01:46;93436.47;;;27.46;36.33
20037;BME280;10179;42.640;23.312;2022-08-19T00:04:14;93502.44;;;27.82;36.78
20037;BME280;10179;42.640;23.312;2022-08-19T00:06:42;93498.50;;;27.79;36.90
20037;BME280;10179;42.640;23.312;2022-08-19T00:09:10;93484.72;;;27.72;36.77
20037;BME280;10179;42.640;23.312;2022-08-19T00:11:36;93484.28;;;27.70;37.05
20037;BME280;10179;42.640;23.312;2022-08-19T00:14:04;93493.75;;;27.76;36.34
20037;BME280;10179;42.640;23.312;2022-08-19T00:16:30;93477.19;;;27.66;36.68
20037;BME280;10179;42.640;23.312;2022-08-19T00:18:56;93495.88;;;27.71;36.88
20037;BME280;10179;42.640;23.312;2022-08-19T00:21:22;93513.31;;;27.73;36.64
20037;BME280;10179;42.640;23.312;2022-08-19T00:23:48;93517.78;;;27.69;36.93
20037;BME280;10179;42.640;23.312;2022-08-19T00:26:14;93513.19;;;27.70;36.90
20037;BME280;10179;42.640;23.312;2022-08-19T00:28:39;93351.72;;;26.65;36.94
20037;BME280;10179;42.640;23.312;2022-08-19T00:31:06;93522.41;;;27.69;36.69
20037;BME280;10179;42.640;23.312;2022-08-19T00:33:33;93520.38;;;27.66;36.85
20037;BME280;10179;42.640;23.312;2022-08-19T00:36:00;93513.28;;;27.61;37.35
20037;BME280;10179;42.640;23.312;2022-08-19T00:38:25;93513.94;;;27.58;36.90
20037;BME280;10179;42.640;23.312;2022-08-19T00:40:51;93513.06;;;27.54;37.47
20037;BME280;10179;42.640;23.312;2022-08-19T00:43:22;93498.19;;;27.48;37.23
20037;BME280;10179;42.640;23.312;2022-08-19T00:45:48;93508.09;;;27.44;37.34
20037;BME280;10179;42.640;23.312;2022-08-19T00:48:16;93511.00;;;27.39;37.37
20037;BME280;10179;42.640;23.312;2022-08-19T00:50:43;93493.69;;;27.27;37.35
20037;BME280;10179;42.640;23.312;2022-08-19T00:53:14;93483.50;;;27.12;37.72
20037;BME280;10179;42.640;23.312;2022-08-19T00:55:42;93503.78;;;27.30;37.45
20037;BME280;10179;42.640;23.312;2022-08-19T00:58:12;93487.34;;;27.23;38.06
20037;BME280;10179;42.640;23.312;2022-08-19T01:00:39;93497.81;;;27.25;37.60
20037;BME280;10179;42.640;23.312;2022-08-19T01:03:09;93502.88;;;27.26;37.67
20037;BME280;10179;42.640;23.312;2022-08-19T01:05:37;93486.81;;;27.09;37.82
20037;BME280;10179;42.640;23.312;2022-08-19T01:08:05;93511.84;;;27.18;37.86
20037;BME280;10179;42.640;23.312;2022-08-19T01:10:40;93496.50;;;27.10;38.01
20037;BME280;10179;42.640;23.312;2022-08-19T01:13:07;93501.44;;;27.08;38.56
20037;BME280;10179;42.640;23.312;2022-08-19T01:15:42;93496.25;;;27.03;38.14
20037;BME280;10179;42.640;23.312;2022-08-19T01:18:10;93499.63;;;27.00;38.19
20037;BME280;10179;42.640;23.312;2022-08-19T01:20:37;93488.47;;;26.89;38.54
20037;BME280;10179;42.640;23.312;2022-08-19T01:23:04;93500.94;;;26.94;38.44
20037;BME280;10179;42.640;23.312;2022-08-19T01:25:52;93495.78;;;27.01;38.26
20037;BME280;10179;42.640;23.312;2022-08-19T01:28:23;93495.00;;;27.00;37.75
20037;BME280;10179;42.640;23.312;2022-08-19T01:30:53;93487.91;;;26.96;38.11
20037;BME280;10179;42.640;23.312;2022-08-19T01:33:20;93501.19;;;27.01;37.87
20037;BME280;10179;42.640;23.312;2022-08-19T01:35:47;93504.34;;;27.03;38.04
20037;BME280;10179;42.640;23.312;2022-08-19T01:38:26;93502.22;;;27.08;38.10
20037;BME280;10179;42.640;23.312;2022-08-19T01:40:53;93509.06;;;27.06;38.12
20037;BME280;10179;42.640;23.312;2022-08-19T01:43:19;93504.78;;;27.05;38.51
20037;BME280;10179;42.640;23.312;2022-08-19T01:45:46;93505.44;;;27.02;38.15
20037;BME280;10179;42.640;23.312;2022-08-19T01:48:12;93511.19;;;27.00;38.87
20037;BME280;10179;42.640;23.312;2022-08-19T01:50:38;93486.28;;;26.82;38.83
20037;BME280;10179;42.640;23.312;2022-08-19T01:53:06;93500.81;;;26.90;38.68
20037;BME280;10179;42.640;23.312;2022-08-19T01:55:33;93502.78;;;26.81;38.84
20037;BME280;10179;42.640;23.312;2022-08-19T01:58:00;93451.69;;;26.42;38.90
20037;BME280;10179;42.640;23.312;2022-08-19T02:00:30;93496.09;;;26.66;39.01
20037;BME280;10179;42.640;23.312;2022-08-19T02:02:56;93483.56;;;26.40;39.36
20037;BME280;10179;42.640;23.312;2022-08-19T02:05:22;93466.09;;;26.26;39.56
20037;BME280;10179;42.640;23.312;2022-08-19T02:07:48;93502.09;;;26.42;39.62
20037;BME280;10179;42.640;23.312;2022-08-19T02:10:17;93505.78;;;26.37;39.76
20037;BME280;10179;42.640;23.312;2022-08-19T02:12:44;93476.91;;;26.17;40.01
20037;BME280;10179;42.640;23.312;2022-08-19T02:15:09;93477.75;;;26.09;40.31
20037;BME280;10179;42.640;23.312;2022-08-19T02:17:35;93499.19;;;26.26;40.28
20037;BME280;10179;42.640;23.312;2022-08-19T02:20:00;93498.28;;;26.22;39.87
20037;BME280;10179;42.640;23.312;2022-08-19T02:22:26;93502.06;;;26.21;40.20
20037;BME280;10179;42.640;23.312;2022-08-19T02:24:53;93431.06;;;25.75;40.23
20037;BME280;10179;42.640;23.312;2022-08-19T02:27:19;93504.31;;;26.19;40.34
20037;BME280;10179;42.640;23.312;2022-08-19T02:29:46;93360.72;;;25.26;40.18
20037;BME280;10179;42.640;23.312;2022-08-19T02:32:12;93497.03;;;26.20;40.24
20037;BME280;10179;42.640;23.312;2022-08-19T02:34:38;93458.53;;;25.89;40.19
20037;BME280;10179;42.640;23.312;2022-08-19T02:37:04;93498.94;;;26.19;40.12
20037;BME280;10179;42.640;23.312;2022-08-19T02:39:29;93504.31;;;26.19;40.05
20037;BME280;10179;42.640;23.312;2022-08-19T02:41:55;93501.16;;;26.17;40.09
20037;BME280;10179;42.640;23.312;2022-08-19T02:44:20;93504.31;;;26.19;40.13
20037;BME280;10179;42.640;23.312;2022-08-19T02:46:47;93503.06;;;26.16;40.26
20037;BME280;10179;42.640;23.312;2022-08-19T02:49:15;93507.66;;;26.16;40.51
20037;BME280;10179;42.640;23.312;2022-08-19T02:51:43;93511.47;;;26.15;40.33
20037;BME280;10179;42.640;23.312;2022-08-19T02:54:11;93511.00;;;26.13;40.80
20037;BME280;10179;42.640;23.312;2022-08-19T02:56:39;93488.16;;;25.89;41.02
20037;BME280;10179;42.640;23.312;2022-08-19T02:59:05;93511.09;;;25.96;41.25
20037;BME280;10179;42.640;23.312;2022-08-19T03:01:33;93512.66;;;25.97;40.96
20037;BME280;10179;42.640;23.312;2022-08-19T03:04:01;93522.97;;;25.94;41.26
20037;BME280;10179;42.640;23.312;2022-08-19T03:06:27;93518.88;;;25.88;41.55
20037;BME280;10179;42.640;23.312;2022-08-19T03:08:53;93511.44;;;25.85;41.70
20037;BME280;10179;42.640;23.312;2022-08-19T03:11:23;93512.56;;;25.84;41.63
20037;BME280;10179;42.640;23.312;2022-08-19T03:13:50;93451.16;;;25.39;41.99
20037;BME280;10179;42.640;23.312;2022-08-19T03:16:16;93503.75;;;25.66;42.01
20037;BME280;10179;42.640;23.312;2022-08-19T03:18:42;93433.50;;;25.21;42.38
20037;BME280;10179;42.640;23.312;2022-08-19T03:21:08;93493.34;;;25.56;42.37
20037;BME280;10179;42.640;23.312;2022-08-19T03:23:34;93489.38;;;25.54;42.64
20037;BME280;10179;42.640;23.312;2022-08-19T03:26:03;93491.28;;;25.53;42.93
20037;BME280;10179;42.640;23.312;2022-08-19T03:28:29;93498.88;;;25.51;42.57
20037;BME280;10179;42.640;23.312;2022-08-19T03:31:04;93504.56;;;25.58;42.45
20037;BME280;10179;42.640;23.312;2022-08-19T03:33:31;93505.53;;;25.54;42.25
20037;BME280;10179;42.640;23.312;2022-08-19T03:38:41;93500.16;;;25.54;42.61
20037;BME280;10179;42.640;23.312;2022-08-19T03:41:10;93503.47;;;25.51;42.67
20037;BME280;10179;42.640;23.312;2022-08-19T03:43:37;93515.34;;;25.50;42.58
20037;BME280;10179;42.640;23.312;2022-08-19T03:46:07;93499.06;;;25.46;42.77
20037;BME280;10179;42.640;23.312;2022-08-19T03:48:34;93520.09;;;25.53;42.83
20037;BME280;10179;42.640;23.312;2022-08-19T03:51:00;93499.06;;;25.37;42.97
20037;BME280;10179;42.640;23.312;2022-08-19T03:53:28;93526.72;;;25.55;42.82
20037;BME280;10179;42.640;23.312;2022-08-19T03:55:55;93466.09;;;25.11;42.90
20037;BME280;10179;42.640;23.312;2022-08-19T03:58:21;93482.53;;;25.18;42.63
20037;BME280;10179;42.640;23.312;2022-08-19T04:00:47;93527.69;;;25.51;42.48
20037;BME280;10179;42.640;23.312;2022-08-19T04:03:12;93415.88;;;24.85;42.94
20037;BME280;10179;42.640;23.312;2022-08-19T04:05:38;93537.78;;;25.62;42.78
20037;BME280;10179;42.640;23.312;2022-08-19T04:08:04;93546.66;;;25.63;43.15
20037;BME280;10179;42.640;23.312;2022-08-19T04:10:35;93539.50;;;25.67;43.12
20037;BME280;10179;42.640;23.312;2022-08-19T04:13:01;93369.13;;;24.60;42.95
20037;BME280;10179;42.640;23.312;2022-08-19T04:15:26;93535.84;;;25.80;43.04
20037;BME280;10179;42.640;23.312;2022-08-19T04:17:53;93540.41;;;25.88;43.02
20037;BME280;10179;42.640;23.312;2022-08-19T04:20:19;93548.44;;;25.97;42.82
20037;BME280;10179;42.640;23.312;2022-08-19T04:22:45;93489.97;;;25.68;42.81
20037;BME280;10179;42.640;23.312;2022-08-19T04:25:10;93544.09;;;26.13;42.50
20037;BME280;10179;42.640;23.312;2022-08-19T04:27:36;93549.59;;;26.26;42.71
20037;BME280;10179;42.640;23.312;2022-08-19T04:30:01;93543.22;;;26.30;42.57
20037;BME280;10179;42.640;23.312;2022-08-19T04:32:27;93482.41;;;26.00;41.94
20037;BME280;10179;42.640;23.312;2022-08-19T04:34:52;93548.72;;;26.63;41.63
20037;BME280;10179;42.640;23.312;2022-08-19T04:37:21;93532.09;;;26.61;41.73
20037;BME280;10179;42.640;23.312;2022-08-19T04:39:46;93549.84;;;26.83;41.15
20037;BME280;10179;42.640;23.312;2022-08-19T04:42:30;93530.34;;;26.86;41.11
20037;BME280;10179;42.640;23.312;2022-08-19T04:45:07;93552.00;;;27.11;40.54
20037;BME280;10179;42.640;23.312;2022-08-19T04:47:35;93537.94;;;27.26;39.92
20037;BME280;10179;42.640;23.312;2022-08-19T04:50:02;93509.84;;;27.27;39.46
20037;BME280;10179;42.640;23.312;2022-08-19T04:52:27;93543.94;;;27.77;39.43
20037;BME280;10179;42.640;23.312;2022-08-19T04:54:53;93549.94;;;27.95;38.12
20037;BME280;10179;42.640;23.312;2022-08-19T04:57:20;93552.72;;;28.11;38.19
20037;BME280;10179;42.640;23.312;2022-08-19T04:59:46;93551.63;;;28.24;38.28
20037;BME280;10179;42.640;23.312;2022-08-19T05:02:11;93555.91;;;28.38;38.10
20037;BME280;10179;42.640;23.312;2022-08-19T05:04:37;93556.38;;;28.52;37.73
20037;BME280;10179;42.640;23.312;2022-08-19T05:07:05;93554.44;;;28.65;36.92
20037;BME280;10179;42.640;23.312;2022-08-19T05:09:30;93560.25;;;28.79;36.81
20037;BME280;10179;42.640;23.312;2022-08-19T05:11:56;93547.75;;;28.87;36.94
20037;BME280;10179;42.640;23.312;2022-08-19T05:14:22;93559.66;;;29.10;36.07
20037;BME280;10179;42.640;23.312;2022-08-19T05:16:48;93516.53;;;28.89;35.71
20037;BME280;10179;42.640;23.312;2022-08-19T05:19:13;93510.75;;;29.03;35.99
20037;BME280;10179;42.640;23.312;2022-08-19T05:21:59;93553.63;;;29.45;35.56
20037;BME280;10179;42.640;23.312;2022-08-19T05:24:44;93517.63;;;29.29;34.93
20037;BME280;10179;42.640;23.312;2022-08-19T05:27:09;93548.66;;;29.59;34.81
20037;BME280;10179;42.640;23.312;2022-08-19T05:29:35;93551.72;;;29.74;34.96
20037;BME280;10179;42.640;23.312;2022-08-19T05:32:03;93557.03;;;29.86;34.85
20037;BME280;10179;42.640;23.312;2022-08-19T05:34:30;93558.19;;;30.01;35.13
20037;BME280;10179;42.640;23.312;2022-08-19T05:36:58;93562.28;;;30.10;35.32
20037;BME280;10179;42.640;23.312;2022-08-19T05:39:26;93563.94;;;30.15;35.12
20037;BME280;10179;42.640;23.312;2022-08-19T05:41:56;93531.91;;;30.01;34.93
20037;BME280;10179;42.640;23.312;2022-08-19T05:44:24;93510.22;;;29.85;35.21
20037;BME280;10179;42.640;23.312;2022-08-19T05:46:50;93469.50;;;29.66;35.32
20037;BME280;10179;42.640;23.312;2022-08-19T05:49:21;93568.94;;;30.29;35.05
20037;BME280;10179;42.640;23.312;2022-08-19T05:51:47;93565.38;;;30.40;34.91
20037;BME280;10179;42.640;23.312;2022-08-19T05:54:12;93528.59;;;30.24;34.18
20037;BME280;10179;42.640;23.312;2022-08-19T05:56:39;93562.78;;;30.63;33.73
20037;BME280;10179;42.640;23.312;2022-08-19T05:59:06;93563.81;;;30.75;33.63
20037;BME280;10179;42.640;23.312;2022-08-19T06:01:36;93564.97;;;30.89;33.24
20037;BME280;10179;42.640;23.312;2022-08-19T06:04:03;93572.69;;;31.07;33.12
20037;BME280;10179;42.640;23.312;2022-08-19T06:06:28;93557.34;;;31.14;32.70
20037;BME280;10179;42.640;23.312;2022-08-19T06:08:54;93567.16;;;31.39;32.69
20037;BME280;10179;42.640;23.312;2022-08-19T06:11:25;93571.06;;;31.60;32.38
20037;BME280;10179;42.640;23.312;2022-08-19T06:13:59;93559.22;;;31.72;32.31
20037;BME280;10179;42.640;23.312;2022-08-19T06:16:25;93553.28;;;31.86;32.05
20037;BME280;10179;42.640;23.312;2022-08-19T06:18:54;93556.69;;;32.02;31.23
20037;BME280;10179;42.640;23.312;2022-08-19T06:21:24;93575.59;;;32.41;31.04
20037;BME280;10179;42.640;23.312;2022-08-19T06:23:51;93541.88;;;32.23;30.93
20037;BME280;10179;42.640;23.312;2022-08-19T06:26:18;93543.44;;;32.24;30.86
20037;BME280;10179;42.640;23.312;2022-08-19T06:28:45;93568.00;;;32.50;30.76
20037;BME280;10179;42.640;23.312;2022-08-19T06:31:24;93570.38;;;32.55;30.50
20037;BME280;10179;42.640;23.312;2022-08-19T06:33:50;93580.66;;;32.66;30.74
20037;BME280;10179;42.640;23.312;2022-08-19T06:36:28;93586.28;;;32.80;30.13
20037;BME280;10179;42.640;23.312;2022-08-19T06:38:57;93573.13;;;32.82;29.80
20037;BME280;10179;42.640;23.312;2022-08-19T06:41:23;93575.59;;;32.94;29.78
20037;BME280;10179;42.640;23.312;2022-08-19T06:43:49;93573.44;;;33.04;29.43
20037;BME280;10179;42.640;23.312;2022-08-19T06:46:16;93563.38;;;33.08;29.37
20037;BME280;10179;42.640;23.312;2022-08-19T06:48:44;93564.94;;;33.09;29.60
20037;BME280;10179;42.640;23.312;2022-08-19T06:51:10;93575.69;;;33.28;29.65
20037;BME280;10179;42.640;23.312;2022-08-19T06:53:35;93560.09;;;33.25;29.37
20037;BME280;10179;42.640;23.312;2022-08-19T06:56:01;93580.56;;;33.45;29.25
20037;BME280;10179;42.640;23.312;2022-08-19T06:58:30;93574.81;;;33.51;28.94
20037;BME280;10179;42.640;23.312;2022-08-19T07:01:01;93574.81;;;33.51;29.02
20037;BME280;10179;42.640;23.312;2022-08-19T07:03:30;93592.13;;;33.69;28.81
20037;BME280;10179;42.640;23.312;2022-08-19T07:05:56;93591.34;;;33.68;28.61
20037;BME280;10179;42.640;23.312;2022-08-19T07:08:21;93591.38;;;33.72;28.56
20037;BME280;10179;42.640;23.312;2022-08-19T07:10:47;93567.28;;;33.74;28.96
20037;BME280;10179;42.640;23.312;2022-08-19T07:13:14;93543.09;;;33.69;28.74
20037;BME280;10179;42.640;23.312;2022-08-19T07:15:39;93578.41;;;33.95;28.48
20037;BME280;10179;42.640;23.312;2022-08-19T07:18:05;93554.97;;;33.87;28.31
20037;BME280;10179;42.640;23.312;2022-08-19T07:20:30;93590.31;;;34.17;28.23
20037;BME280;10179;42.640;23.312;2022-08-19T07:22:57;93583.41;;;34.27;28.24
20037;BME280;10179;42.640;23.312;2022-08-19T07:25:22;93590.47;;;34.35;28.14
20037;BME280;10179;42.640;23.312;2022-08-19T07:27:50;93597.16;;;34.41;28.02
20037;BME280;10179;42.640;23.312;2022-08-19T07:30:16;93585.50;;;34.48;27.54
20037;BME280;10179;42.640;23.312;2022-08-19T07:32:42;93585.72;;;34.73;27.40
20037;BME280;10179;42.640;23.312;2022-08-19T07:35:09;93593.69;;;34.96;27.06
20037;BME280;10179;42.640;23.312;2022-08-19T07:37:35;93594.25;;;35.23;26.52
20037;BME280;10179;42.640;23.312;2022-08-19T07:40:05;93525.53;;;35.14;26.10
20037;BME280;10179;42.640;23.312;2022-08-19T07:42:31;93527.59;;;35.42;25.67
20037;BME280;10179;42.640;23.312;2022-08-19T07:44:57;93570.31;;;35.97;25.68
20037;BME280;10179;42.640;23.312;2022-08-19T07:47:23;93586.00;;;36.28;25.23
20037;BME280;10179;42.640;23.312;2022-08-19T07:49:48;93591.50;;;36.50;25.04
20037;BME280;10179;42.640;23.312;2022-08-19T07:52:14;93589.16;;;36.77;24.54
20037;BME280;10179;42.640;23.312;2022-08-19T07:54:40;93593.03;;;37.12;24.15
20037;BME280;10179;42.640;23.312;2022-08-19T07:57:07;93592.97;;;37.44;24.21
20037;BME280;10179;42.640;23.312;2022-08-19T07:59:33;93569.75;;;37.66;23.34
20037;BME280;10179;42.640;23.312;2022-08-19T08:01:59;93589.53;;;38.10;23.14
20037;BME280;10179;42.640;23.312;2022-08-19T08:04:26;93591.78;;;38.22;23.08
20037;BME280;10179;42.640;23.312;2022-08-19T08:07:10;93561.31;;;38.09;23.00
20037;BME280;10179;42.640;23.312;2022-08-19T08:09:54;93583.06;;;38.45;22.76
20037;BME280;10179;42.640;23.312;2022-08-19T08:12:25;93575.91;;;38.55;22.49
20037;BME280;10179;42.640;23.312;2022-08-19T08:14:56;93580.56;;;38.61;22.36
20037;BME280;10179;42.640;23.312;2022-08-19T08:17:25;93579.00;;;38.60;22.54
20037;BME280;10179;42.640;23.312;2022-08-19T08:19:51;93571.94;;;38.59;21.88
20037;BME280;10179;42.640;23.312;2022-08-19T08:22:19;93569.59;;;38.61;22.19
20037;BME280;10179;42.640;23.312;2022-08-19T08:25:20;93572.97;;;38.76;21.94
20037;BME280;10179;42.640;23.312;2022-08-19T08:27:46;93567.84;;;38.78;21.54
20037;BME280;10179;42.640;23.312;2022-08-19T08:30:15;93561.28;;;38.69;21.12
20037;BME280;10179;42.640;23.312;2022-08-19T08:32:41;93576.56;;;38.70;20.99
20037;BME280;10179;42.640;23.312;2022-08-19T08:35:10;93569.47;;;38.76;21.14
20037;BME280;10179;42.640;23.312;2022-08-19T08:37:36;93570.19;;;38.80;21.02
20037;BME280;10179;42.640;23.312;2022-08-19T08:40:15;93572.53;;;38.85;20.71
20037;BME280;10179;42.640;23.312;2022-08-19T08:42:51;93571.44;;;38.72;20.69
20037;BME280;10179;42.640;23.312;2022-08-19T08:45:20;93566.41;;;38.63;20.43
20037;BME280;10179;42.640;23.312;2022-08-19T08:47:48;93491.09;;;38.15;19.82
20037;BME280;10179;42.640;23.312;2022-08-19T08:50:20;93534.06;;;38.40;19.55
20037;BME280;10179;42.640;23.312;2022-08-19T08:52:50;93565.25;;;38.60;19.58
20037;BME280;10179;42.640;23.312;2022-08-19T08:55:21;93560.56;;;38.57;19.51
20037;BME280;10179;42.640;23.312;2022-08-19T09:00:35;93558.59;;;38.61;19.64
20037;BME280;10179;42.640;23.312;2022-08-19T09:03:02;93531.78;;;38.28;19.65
20037;BME280;10179;42.640;23.312;2022-08-19T09:08:19;93547.03;;;38.32;19.78
20037;BME280;10179;42.640;23.312;2022-08-19T09:10:54;93547.03;;;38.36;20.30
20037;BME280;10179;42.640;23.312;2022-08-19T09:15:56;93550.50;;;38.43;20.14
20037;BME280;10179;42.640;23.312;2022-08-19T09:18:23;93543.88;;;38.41;19.63
20037;BME280;10179;42.640;23.312;2022-08-19T09:20:48;93540.22;;;38.55;19.44
20037;BME280;10179;42.640;23.312;2022-08-19T09:23:14;93479.63;;;38.28;19.44
20037;BME280;10179;42.640;23.312;2022-08-19T09:25:40;93535.69;;;38.75;18.57
20037;BME280;10179;42.640;23.312;2022-08-19T09:28:06;93543.03;;;38.89;18.50
20037;BME280;10179;42.640;23.312;2022-08-19T09:30:36;93544.13;;;38.99;18.28
20037;BME280;10179;42.640;23.312;2022-08-19T09:33:04;93538.59;;;39.02;17.97
20037;BME280;10179;42.640;23.312;2022-08-19T09:35:30;93530.72;;;39.04;17.90
20037;BME280;10179;42.640;23.312;2022-08-19T09:37:58;93534.22;;;39.08;17.80
20037;BME280;10179;42.640;23.312;2022-08-19T09:40:23;93528.28;;;39.10;17.56
20037;BME280;10179;42.640;23.312;2022-08-19T09:42:51;93528.25;;;39.13;17.72
20037;BME280;10179;42.640;23.312;2022-08-19T09:45:19;93531.69;;;39.25;17.57
20037;BME280;10179;42.640;23.312;2022-08-19T09:47:47;93525.81;;;39.23;17.53
20037;BME280;10179;42.640;23.312;2022-08-19T09:50:13;93529.41;;;39.16;17.46
20037;BME280;10179;42.640;23.312;2022-08-19T09:52:39;93521.22;;;39.12;16.96
20037;BME280;10179;42.640;23.312;2022-08-19T09:55:05;93518.03;;;39.18;17.33
20037;BME280;10179;42.640;23.312;2022-08-19T09:57:31;93521.84;;;39.27;17.12
20037;BME280;10179;42.640;23.312;2022-08-19T09:59:57;93526.63;;;39.20;17.74
20037;BME280;10179;42.640;23.312;2022-08-19T10:02:22;93520.91;;;39.03;17.71
20037;BME280;10179;42.640;23.312;2022-08-19T10:04:48;93510.84;;;38.93;17.61
20037;BME280;10179;42.640;23.312;2022-08-19T10:07:31;93499.16;;;38.78;17.61
20037;BME280;10179;42.640;23.312;2022-08-19T10:09:57;93474.56;;;38.67;17.77
20037;BME280;10179;42.640;23.312;2022-08-19T10:12:22;93504.91;;;38.95;18.33
20037;BME280;10179;42.640;23.312;2022-08-19T10:14:48;93505.97;;;39.08;18.02
20037;BME280;10179;42.640;23.312;2022-08-19T10:17:14;93471.53;;;38.96;17.74
20037;BME280;10179;42.640;23.312;2022-08-19T10:19:40;93494.31;;;39.31;17.59
20037;BME280;10179;42.640;23.312;2022-08-19T10:22:06;93459.72;;;38.99;17.52
20037;BME280;10179;42.640;23.312;2022-08-19T10:24:33;93358.84;;;38.31;17.26
20037;BME280;10179;42.640;23.312;2022-08-19T10:27:00;93463.41;;;38.85;17.17
20037;BME280;10179;42.640;23.312;2022-08-19T10:29:29;93474.38;;;38.89;17.35
20037;BME280;10179;42.640;23.312;2022-08-19T10:31:55;93493.91;;;38.98;17.55
20037;BME280;10179;42.640;23.312;2022-08-19T10:34:21;93497.88;;;38.94;17.22
20037;BME280;10179;42.640;23.312;2022-08-19T10:36:46;93461.47;;;38.86;17.33
20037;BME280;10179;42.640;23.312;2022-08-19T10:39:12;93481.28;;;39.04;17.15
20037;BME280;10179;42.640;23.312;2022-08-19T10:41:38;93488.53;;;39.22;17.20
20037;BME280;10179;42.640;23.312;2022-08-19T10:44:07;93351.97;;;38.50;17.17
20037;BME280;10179;42.640;23.312;2022-08-19T10:46:35;93479.78;;;39.61;16.83
20037;BME280;10179;42.640;23.312;2022-08-19T10:49:02;93478.25;;;39.87;16.60
20037;BME280;10179;42.640;23.312;2022-08-19T10:51:28;93478.34;;;40.07;16.81
20037;BME280;10179;42.640;23.312;2022-08-19T10:54:12;93476.88;;;40.49;16.50
20037;BME280;10179;42.640;23.312;2022-08-19T10:56:37;93459.03;;;40.58;16.09
20037;BME280;10179;42.640;23.312;2022-08-19T10:59:21;93480.75;;;40.95;15.84
20037;BME280;10179;42.640;23.312;2022-08-19T11:01:48;93435.41;;;40.80;15.60
20037;BME280;10179;42.640;23.312;2022-08-19T11:04:14;93477.50;;;41.04;15.38
20037;BME280;10179;42.640;23.312;2022-08-19T11:06:43;93451.94;;;40.80;15.68
20037;BME280;10179;42.640;23.312;2022-08-19T11:09:11;93450.31;;;40.83;16.11
20037;BME280;10179;42.640;23.312;2022-08-19T11:11:38;93481.97;;;40.94;15.66
20037;BME280;10179;42.640;23.312;2022-08-19T11:14:12;93475.31;;;40.92;15.89
20037;BME280;10179;42.640;23.312;2022-08-19T11:16:39;93436.72;;;40.72;15.88
20037;BME280;10179;42.640;23.312;2022-08-19T11:19:06;93472.31;;;41.26;15.73
20037;BME280;10179;42.640;23.312;2022-08-19T11:21:39;93459.16;;;41.54;15.58
20037;BME280;10179;42.640;23.312;2022-08-19T11:24:11;93466.91;;;41.59;15.04
20037;BME280;10179;42.640;23.312;2022-08-19T11:26:39;93411.44;;;40.97;15.38
20037;BME280;10179;42.640;23.312;2022-08-19T11:29:07;93451.75;;;41.11;15.88
20037;BME280;10179;42.640;23.312;2022-08-19T11:31:36;93462.97;;;41.20;15.98
20037;BME280;10179;42.640;23.312;2022-08-19T11:34:06;93464.81;;;41.07;15.67
20037;BME280;10179;42.640;23.312;2022-08-19T11:36:32;93469.25;;;40.81;16.01
20037;BME280;10179;42.640;23.312;2022-08-19T11:38:58;93332.59;;;39.76;16.06
20037;BME280;10179;42.640;23.312;2022-08-19T11:41:25;93460.22;;;40.57;16.14
20037;BME280;10179;42.640;23.312;2022-08-19T11:43:51;93454.81;;;40.49;16.50
20037;BME280;10179;42.640;23.312;2022-08-19T11:46:19;93451.50;;;40.38;16.84
20037;BME280;10179;42.640;23.312;2022-08-19T11:48:44;93448.16;;;40.27;16.76
20037;BME280;10179;42.640;23.312;2022-08-19T11:51:12;93448.66;;;39.95;16.86
20037;BME280;10179;42.640;23.312;2022-08-19T11:53:39;93457.97;;;39.47;17.29
20037;BME280;10179;42.640;23.312;2022-08-19T11:56:06;93393.66;;;38.76;17.84
20037;BME280;10179;42.640;23.312;2022-08-19T11:58:32;93448.19;;;38.77;17.78
20037;BME280;10179;42.640;23.312;2022-08-19T12:00:59;93445.78;;;38.45;18.06
20037;BME280;10179;42.640;23.312;2022-08-19T12:03:24;93399.66;;;37.81;18.60
20037;BME280;10179;42.640;23.312;2022-08-19T12:05:50;93438.41;;;37.86;18.52
20037;BME280;10179;42.640;23.312;2022-08-19T12:08:16;93429.88;;;37.70;19.02
20037;BME280;10179;42.640;23.312;2022-08-19T12:10:43;93424.88;;;37.61;18.97
20037;BME280;10179;42.640;23.312;2022-08-19T12:13:10;93425.31;;;37.56;19.07
20037;BME280;10179;42.640;23.312;2022-08-19T12:15:39;93360.56;;;37.10;19.47
20037;BME280;10179;42.640;23.312;2022-08-19T12:18:08;93419.88;;;37.38;18.84
20037;BME280;10179;42.640;23.312;2022-08-19T12:20:39;93416.09;;;37.21;19.25
20037;BME280;10179;42.640;23.312;2022-08-19T12:23:07;93391.97;;;36.88;19.18
20037;BME280;10179;42.640;23.312;2022-08-19T12:25:35;93308.50;;;36.22;19.69
20037;BME280;10179;42.640;23.312;2022-08-19T12:28:01;93358.47;;;36.55;19.41
20037;BME280;10179;42.640;23.312;2022-08-19T12:30:26;93412.34;;;36.79;19.58
20037;BME280;10179;42.640;23.312;2022-08-19T12:32:52;93400.63;;;36.79;19.67
20037;BME280;10179;42.640;23.312;2022-08-19T12:35:18;93402.19;;;36.76;19.89
20037;BME280;10179;42.640;23.312;2022-08-19T12:37:46;93405.31;;;36.78;20.29
20037;BME280;10179;42.640;23.312;2022-08-19T12:40:12;93386.16;;;36.71;19.88
20037;BME280;10179;42.640;23.312;2022-08-19T12:42:39;93356.94;;;36.40;19.95
20037;BME280;10179;42.640;23.312;2022-08-19T12:45:08;93392.06;;;36.63;20.42
20037;BME280;10179;42.640;23.312;2022-08-19T12:47:35;93387.00;;;36.61;20.37
20037;BME280;10179;42.640;23.312;2022-08-19T12:50:00;93385.06;;;36.58;20.22
20037;BME280;10179;42.640;23.312;2022-08-19T12:52:27;93343.28;;;36.32;19.94
20037;BME280;10179;42.640;23.312;2022-08-19T12:54:54;93382.69;;;36.64;20.20
20037;BME280;10179;42.640;23.312;2022-08-19T12:57:28;93378.34;;;36.73;19.96
20037;BME280;10179;42.640;23.312;2022-08-19T12:59:56;93376.38;;;36.77;20.01
20037;BME280;10179;42.640;23.312;2022-08-19T13:02:22;93321.75;;;36.42;20.13
20037;BME280;10179;42.640;23.312;2022-08-19T13:04:47;93379.50;;;36.79;20.01